createdAt,value
2022-08-20T00:00:14.468Z,1008.32
2022-08-20T00:01:14.461Z,1008.36
2022-08-20T00:02:14.539Z,1008.40
2022-08-20T00:03:14.433Z,1008.40
2022-08-20T00:04:14.428Z,1008.47
2022-08-20T00:05:14.444Z,1008.41
2022-08-20T00:06:14.394Z,1008.47
2022-08-20T00:07:14.420Z,1008.41
2022-08-20T00:08:14.381Z,1008.48
2022-08-20T00:09:14.371Z,1008.44
2022-08-20T00:10:14.351Z,1008.42
2022-08-20T00:11:14.357Z,1008.44
2022-08-20T00:12:14.337Z,1008.51
2022-08-20T00:13:14.325Z,1008.40
2022-08-20T00:14:14.306Z,1008.49
2022-08-20T00:15:14.310Z,1008.48
2022-08-20T00:16:14.291Z,1008.45
2022-08-20T00:17:14.290Z,1008.42
2022-08-20T00:18:14.259Z,1008.45
2022-08-20T00:19:14.279Z,1008.47
2022-08-20T00:20:14.246Z,1008.45
2022-08-20T00:21:18.748Z,1008.38
2022-08-20T00:22:15.226Z,1008.37
2022-08-20T00:23:14.227Z,1008.43
2022-08-20T00:24:14.200Z,1008.41
2022-08-20T00:25:14.214Z,1008.43
2022-08-20T00:26:14.211Z,1008.41
2022-08-20T00:27:14.172Z,1008.50
2022-08-20T00:28:14.172Z,1008.53
2022-08-20T00:29:14.185Z,1008.52
2022-08-20T00:30:14.139Z,1008.49
2022-08-20T00:31:14.145Z,1008.48
2022-08-20T00:32:14.143Z,1008.51
2022-08-20T00:33:14.113Z,1008.45
2022-08-20T00:34:14.104Z,1008.41
2022-08-20T00:35:14.111Z,1008.47
2022-08-20T00:36:14.081Z,1008.50
2022-08-20T00:37:14.092Z,1008.52
2022-08-20T00:38:14.075Z,1008.55
2022-08-20T00:39:14.044Z,1008.53
2022-08-20T00:40:22.489Z,1008.59
2022-08-20T00:41:15.022Z,1008.62
2022-08-20T00:42:14.012Z,1008.56
2022-08-20T00:43:14.045Z,1008.57
2022-08-20T00:44:14.002Z,1008.56
2022-08-20T00:45:13.977Z,1008.60
2022-08-20T00:46:13.962Z,1008.52
2022-08-20T00:47:13.956Z,1008.62
2022-08-20T00:48:13.971Z,1008.50
2022-08-20T00:49:13.933Z,1008.54
2022-08-20T00:50:13.949Z,1008.51
2022-08-20T00:51:13.912Z,1008.58
2022-08-20T00:52:13.910Z,1008.47
2022-08-20T00:53:13.903Z,1008.52
2022-08-20T00:54:13.887Z,1008.46
2022-08-20T00:55:13.878Z,1008.51
2022-08-20T00:56:13.863Z,1008.55
2022-08-20T00:57:13.850Z,1008.53
2022-08-20T00:58:13.882Z,1008.49
2022-08-20T00:59:13.841Z,1008.55
2022-08-20T01:00:13.824Z,1008.57
2022-08-20T01:01:13.815Z,1008.63
2022-08-20T01:02:13.852Z,1008.59
2022-08-20T01:03:13.809Z,1008.54
2022-08-20T01:04:13.777Z,1008.63
2022-08-20T01:05:13.779Z,1008.66
2022-08-20T01:06:13.748Z,1008.59
2022-08-20T01:07:13.749Z,1008.58
2022-08-20T01:08:13.743Z,1008.63
2022-08-20T01:09:49.457Z,1008.63
2022-08-20T01:10:14.814Z,1008.57
2022-08-20T01:11:13.830Z,1008.64
2022-08-20T01:12:13.755Z,1008.65
2022-08-20T01:13:13.782Z,1008.64
2022-08-20T01:14:13.694Z,1008.62
2022-08-20T01:15:13.653Z,1008.65
2022-08-20T01:16:13.669Z,1008.74
2022-08-20T01:17:13.636Z,1008.67
2022-08-20T01:18:13.621Z,1008.69
2022-08-20T01:19:29.387Z,1008.66
2022-08-20T01:20:14.607Z,1008.69
2022-08-20T01:21:13.605Z,1008.72
2022-08-20T01:22:13.598Z,1008.73
2022-08-20T01:23:13.590Z,1008.68
2022-08-20T01:24:13.551Z,1008.66
2022-08-20T01:25:13.545Z,1008.74
2022-08-20T01:26:13.565Z,1008.79
2022-08-20T01:27:13.536Z,1008.77
2022-08-20T01:28:13.523Z,1008.76
2022-08-20T01:29:13.514Z,1008.74
2022-08-20T01:30:13.494Z,1008.76
2022-08-20T01:31:13.481Z,1008.70
2022-08-20T01:32:13.482Z,1008.74
2022-08-20T01:33:13.471Z,1008.71
2022-08-20T01:34:13.453Z,1008.71
2022-08-20T01:35:13.439Z,1008.67
2022-08-20T01:36:13.452Z,1008.70
2022-08-20T01:37:13.434Z,1008.71
2022-08-20T01:38:13.408Z,1008.70
2022-08-20T01:39:13.404Z,1008.77
2022-08-20T01:40:13.431Z,1008.74
2022-08-20T01:41:13.372Z,1008.71
2022-08-20T01:42:13.380Z,1008.75
2022-08-20T01:43:13.376Z,1008.70
2022-08-20T01:44:17.025Z,1008.72
2022-08-20T01:45:14.342Z,1008.74
2022-08-20T01:46:13.346Z,1008.67
2022-08-20T01:47:13.321Z,1008.67
2022-08-20T01:48:13.350Z,1008.67
2022-08-20T01:49:13.781Z,1008.74
2022-08-20T01:50:14.295Z,1008.71
2022-08-20T01:51:13.286Z,1008.73
2022-08-20T01:52:13.264Z,1008.78
2022-08-20T01:53:13.252Z,1008.69
2022-08-20T01:54:13.243Z,1008.71
2022-08-20T01:55:13.230Z,1008.74
2022-08-20T01:56:13.239Z,1008.68
2022-08-20T01:57:13.224Z,1008.70
2022-08-20T01:58:13.198Z,1008.79
2022-08-20T01:59:13.204Z,1008.81
2022-08-20T02:00:19.786Z,1008.78
2022-08-20T02:01:14.174Z,1008.79
2022-08-20T02:02:13.151Z,1008.70
2022-08-20T02:03:13.222Z,1008.74
2022-08-20T02:04:15.191Z,1008.75
2022-08-20T02:05:13.113Z,1008.71
2022-08-20T02:06:13.104Z,1008.71
2022-08-20T02:07:13.096Z,1008.64
2022-08-20T02:08:13.093Z,1008.65
2022-08-20T02:09:16.057Z,1008.59
2022-08-20T02:10:13.071Z,1008.60
2022-08-20T02:11:13.062Z,1008.64
2022-08-20T02:12:13.050Z,1008.59
2022-08-20T02:13:13.058Z,1008.60
2022-08-20T02:14:13.021Z,1008.62
2022-08-20T02:15:13.020Z,1008.65
2022-08-20T02:16:13.005Z,1008.69
2022-08-20T02:17:13.027Z,1008.68
2022-08-20T02:18:12.985Z,1008.71
2022-08-20T02:19:12.979Z,1008.73
2022-08-20T02:20:12.957Z,1008.69
2022-08-20T02:21:12.966Z,1008.75
2022-08-20T02:22:12.947Z,1008.72
2022-08-20T02:23:12.981Z,1008.81
2022-08-20T02:24:12.920Z,1008.78
2022-08-20T02:25:12.914Z,1008.79
2022-08-20T02:26:12.922Z,1008.80
2022-08-20T02:27:12.914Z,1008.81
2022-08-20T02:28:12.886Z,1008.79
2022-08-20T02:29:12.872Z,1008.82
2022-08-20T02:30:27.624Z,1008.87
2022-08-20T02:31:13.864Z,1008.86
2022-08-20T02:32:32.493Z,1008.93
2022-08-20T02:33:13.829Z,1008.92
2022-08-20T02:34:18.111Z,1008.90
2022-08-20T02:35:13.805Z,1008.88
2022-08-20T02:36:12.793Z,1008.88
2022-08-20T02:37:12.794Z,1008.88
2022-08-20T02:38:12.781Z,1008.88
2022-08-20T02:39:12.758Z,1008.91
2022-08-20T02:40:12.794Z,1008.88
2022-08-20T02:41:12.745Z,1008.91
2022-08-20T02:42:12.730Z,1008.93
2022-08-20T02:43:12.729Z,1008.95
2022-08-20T02:44:12.714Z,1008.93
2022-08-20T02:45:13.288Z,1008.96
2022-08-20T02:47:23.123Z,1008.93
2022-08-20T02:48:23.298Z,1008.93
2022-08-20T02:49:23.054Z,1008.93
2022-08-20T02:50:23.086Z,1008.93
2022-08-20T02:51:30.340Z,1008.99
2022-08-20T02:52:23.960Z,1008.92
2022-08-20T02:53:22.994Z,1008.88
2022-08-20T02:54:22.958Z,1008.95
2022-08-20T02:55:27.274Z,1008.94
2022-08-20T02:56:23.931Z,1008.91
2022-08-20T02:57:22.912Z,1008.91
2022-08-20T02:58:22.901Z,1008.86
2022-08-20T02:59:22.907Z,1008.86
2022-08-20T03:00:22.884Z,1008.89
2022-08-20T03:01:22.892Z,1008.89
2022-08-20T03:02:22.861Z,1008.84
2022-08-20T03:03:23.000Z,1008.92
2022-08-20T03:04:22.880Z,1008.83
2022-08-20T03:05:22.830Z,1008.86
2022-08-20T03:06:22.804Z,1008.84
2022-08-20T03:07:22.828Z,1008.84
2022-08-20T03:08:22.798Z,1008.81
2022-08-20T03:09:22.773Z,1008.75
2022-08-20T03:10:22.784Z,1008.75
2022-08-20T03:11:22.750Z,1008.79
2022-08-20T03:12:22.751Z,1008.84
2022-08-20T03:13:22.747Z,1008.82
2022-08-20T03:14:22.770Z,1008.73
2022-08-20T03:15:22.722Z,1008.80
2022-08-20T03:16:22.713Z,1008.73
2022-08-20T03:17:22.695Z,1008.78
2022-08-20T03:18:22.726Z,1008.78
2022-08-20T03:19:22.672Z,1008.70
2022-08-20T03:20:23.983Z,1008.76
2022-08-20T03:21:22.675Z,1008.74
2022-08-20T03:22:22.648Z,1008.77
2022-08-20T03:23:22.635Z,1008.77
2022-08-20T03:24:22.657Z,1008.71
2022-08-20T03:25:22.632Z,1008.73
2022-08-20T03:26:22.601Z,1008.74
2022-08-20T03:27:22.595Z,1008.74
2022-08-20T03:28:22.594Z,1008.71
2022-08-20T03:29:22.623Z,1008.68
2022-08-20T03:30:22.560Z,1008.65
2022-08-20T03:31:22.558Z,1008.63
2022-08-20T03:32:22.562Z,1008.59
2022-08-20T03:33:32.255Z,1008.59
2022-08-20T03:34:22.643Z,1008.55
2022-08-20T03:35:22.624Z,1008.53
2022-08-20T03:36:28.089Z,1008.49
2022-08-20T03:37:23.601Z,1008.49
2022-08-20T03:38:32.813Z,1008.49
2022-08-20T03:39:23.458Z,1008.48
2022-08-20T03:40:22.454Z,1008.51
2022-08-20T03:41:22.480Z,1008.53
2022-08-20T03:42:22.455Z,1008.48
2022-08-20T03:43:22.426Z,1008.48
2022-08-20T03:44:22.417Z,1008.44
2022-08-20T03:45:22.392Z,1008.51
2022-08-20T03:46:23.774Z,1008.50
2022-08-20T03:47:22.384Z,1008.54
2022-08-20T03:48:22.367Z,1008.49
2022-08-20T03:49:22.371Z,1008.57
2022-08-20T03:50:22.802Z,1008.56
2022-08-20T03:51:22.340Z,1008.61
2022-08-20T03:52:22.333Z,1008.61
2022-08-20T03:53:22.324Z,1008.55
2022-08-20T03:54:22.318Z,1008.63
2022-08-20T03:55:22.294Z,1008.67
2022-08-20T03:56:22.283Z,1008.62
2022-08-20T03:57:22.277Z,1008.65
2022-08-20T03:58:22.265Z,1008.65
2022-08-20T03:59:23.271Z,1008.64
2022-08-20T04:00:22.235Z,1008.68
2022-08-20T04:01:44.614Z,1008.63
2022-08-20T04:02:30.855Z,1008.71
2022-08-20T04:03:22.305Z,1008.67
2022-08-20T04:04:22.317Z,1008.67
2022-08-20T04:05:22.277Z,1008.72
2022-08-20T04:06:22.300Z,1008.69
2022-08-20T04:07:22.159Z,1008.71
2022-08-20T04:08:22.163Z,1008.76
2022-08-20T04:09:22.144Z,1008.79
2022-08-20T04:10:22.140Z,1008.73
2022-08-20T04:11:22.141Z,1008.81
2022-08-20T04:12:22.129Z,1008.81
2022-08-20T04:13:22.739Z,1008.82
2022-08-20T04:14:22.097Z,1008.84
2022-08-20T04:15:22.083Z,1008.84
2022-08-20T04:16:22.071Z,1008.84
2022-08-20T04:17:22.076Z,1008.84
2022-08-20T04:18:22.090Z,1008.84
2022-08-20T04:19:22.052Z,1008.81
2022-08-20T04:20:22.032Z,1008.91
2022-08-20T04:21:22.012Z,1008.91
2022-08-20T04:22:22.021Z,1008.94
2022-08-20T04:23:29.647Z,1008.86
2022-08-20T04:24:27.467Z,1008.88
2022-08-20T04:25:23.960Z,1008.89
2022-08-20T04:26:22.026Z,1008.91
2022-08-20T04:27:22.060Z,1008.98
2022-08-20T04:28:21.993Z,1008.93
2022-08-20T04:29:21.934Z,1008.94
2022-08-20T04:30:21.915Z,1008.94
2022-08-20T04:31:24.971Z,1009.01
2022-08-20T04:32:21.912Z,1009.00
2022-08-20T04:33:33.370Z,1008.97
2022-08-20T04:34:29.567Z,1008.99
2022-08-20T04:35:21.986Z,1008.97
2022-08-20T04:36:21.957Z,1009.03
2022-08-20T04:37:21.907Z,1009.05
2022-08-20T04:38:21.963Z,1008.97
2022-08-20T04:39:21.853Z,1008.98
2022-08-20T04:40:21.820Z,1008.97
2022-08-20T04:41:23.500Z,1009.03
2022-08-20T04:42:21.792Z,1008.99
2022-08-20T04:43:21.803Z,1009.02
2022-08-20T04:44:21.798Z,1009.06
2022-08-20T04:45:21.763Z,1008.96
2022-08-20T04:46:21.763Z,1009.02
2022-08-20T04:47:28.306Z,1009.02
2022-08-20T04:48:22.730Z,1009.02
2022-08-20T04:49:21.725Z,1009.05
2022-08-20T04:50:21.739Z,1009.06
2022-08-20T04:51:23.375Z,1009.08
2022-08-20T04:52:21.693Z,1009.04
2022-08-20T04:53:25.682Z,1009.01
2022-08-20T04:54:21.666Z,1009.05
2022-08-20T04:55:21.659Z,1009.04
2022-08-20T04:56:21.646Z,1009.06
2022-08-20T04:57:21.696Z,1009.01
2022-08-20T04:58:21.630Z,1009.06
2022-08-20T04:59:21.613Z,1009.04
2022-08-20T05:00:21.603Z,1009.04
2022-08-20T05:01:21.652Z,1009.05
2022-08-20T05:02:21.586Z,1009.06
2022-08-20T05:03:21.594Z,1008.98
2022-08-20T05:04:21.590Z,1009.02
2022-08-20T05:05:21.550Z,1009.02
2022-08-20T05:06:21.535Z,1008.99
2022-08-20T05:07:21.536Z,1009.00
2022-08-20T05:08:21.526Z,1009.04
2022-08-20T05:09:21.508Z,1009.08
2022-08-20T05:10:21.561Z,1009.08
2022-08-20T05:11:35.306Z,1009.10
2022-08-20T05:12:22.477Z,1009.13
2022-08-20T05:13:25.393Z,1009.17
2022-08-20T05:14:22.445Z,1009.13
2022-08-20T05:15:21.457Z,1009.20
2022-08-20T05:16:21.433Z,1009.17
2022-08-20T05:17:21.439Z,1009.20
2022-08-20T05:18:21.426Z,1009.15
2022-08-20T05:19:21.404Z,1009.13
2022-08-20T05:20:21.406Z,1009.14
2022-08-20T05:21:21.404Z,1009.14
2022-08-20T05:22:21.368Z,1009.09
2022-08-20T05:23:21.352Z,1009.09
2022-08-20T05:24:21.355Z,1009.14
2022-08-20T05:25:21.335Z,1009.12
2022-08-20T05:26:21.342Z,1009.19
2022-08-20T05:27:24.987Z,1009.20
2022-08-20T05:28:21.307Z,1009.19
2022-08-20T05:29:21.294Z,1009.30
2022-08-20T05:30:21.283Z,1009.27
2022-08-20T05:31:21.277Z,1009.26
2022-08-20T05:32:21.267Z,1009.29
2022-08-20T05:33:21.264Z,1009.33
2022-08-20T05:34:21.291Z,1009.31
2022-08-20T05:35:21.232Z,1009.25
2022-08-20T05:36:21.214Z,1009.26
2022-08-20T05:37:21.230Z,1009.27
2022-08-20T05:38:21.203Z,1009.30
2022-08-20T05:39:21.194Z,1009.24
2022-08-20T05:40:21.234Z,1009.19
2022-08-20T05:41:28.967Z,1009.20
2022-08-20T05:42:22.172Z,1009.20
2022-08-20T05:43:21.149Z,1009.20
2022-08-20T05:44:21.142Z,1009.14
2022-08-20T05:45:21.138Z,1009.12
2022-08-20T05:46:21.119Z,1009.09
2022-08-20T05:47:21.118Z,1009.02
2022-08-20T05:48:21.096Z,1009.07
2022-08-20T05:49:21.107Z,1009.07
2022-08-20T05:50:23.379Z,1009.16
2022-08-20T05:51:21.056Z,1009.17
2022-08-20T05:52:21.047Z,1009.17
2022-08-20T05:53:21.042Z,1009.21
2022-08-20T05:54:21.049Z,1009.24
2022-08-20T05:55:21.025Z,1009.19
2022-08-20T05:56:21.666Z,1009.20
2022-08-20T05:57:22.000Z,1009.26
2022-08-20T05:58:20.988Z,1009.26
2022-08-20T05:59:24.059Z,1009.26
2022-08-20T06:00:29.903Z,1009.30
2022-08-20T06:01:21.079Z,1009.31
2022-08-20T06:02:21.019Z,1009.30
2022-08-20T06:03:20.988Z,1009.30
2022-08-20T06:04:28.734Z,1009.34
2022-08-20T06:05:21.006Z,1009.30
2022-08-20T06:06:44.982Z,1009.34
2022-08-20T06:07:21.934Z,1009.29
2022-08-20T06:08:20.951Z,1009.35
2022-08-20T06:09:30.653Z,1009.46
2022-08-20T06:10:21.889Z,1009.39
2022-08-20T06:11:20.884Z,1009.38
2022-08-20T06:12:20.840Z,1009.36
2022-08-20T06:13:20.818Z,1009.41
2022-08-20T06:14:20.812Z,1009.43
2022-08-20T06:15:20.841Z,1009.45
2022-08-20T06:16:20.815Z,1009.45
2022-08-20T06:17:22.399Z,1009.44
2022-08-20T06:18:28.446Z,1009.45
2022-08-20T06:19:21.761Z,1009.49
2022-08-20T06:20:20.765Z,1009.48
2022-08-20T06:21:20.742Z,1009.54
2022-08-20T06:22:27.595Z,1009.51
2022-08-20T06:23:21.721Z,1009.48
2022-08-20T06:24:20.703Z,1009.50
2022-08-20T06:25:20.695Z,1009.56
2022-08-20T06:26:27.307Z,1009.54
2022-08-20T06:27:21.679Z,1009.57
2022-08-20T06:28:20.666Z,1009.55
2022-08-20T06:29:20.648Z,1009.64
2022-08-20T06:30:20.637Z,1009.58
2022-08-20T06:31:20.670Z,1009.53
2022-08-20T06:32:28.848Z,1009.53
2022-08-20T06:33:21.621Z,1009.54
2022-08-20T06:34:20.601Z,1009.53
2022-08-20T06:35:20.585Z,1009.54
2022-08-20T06:36:20.596Z,1009.52
2022-08-20T06:37:20.586Z,1009.56
2022-08-20T06:38:20.569Z,1009.56
2022-08-20T06:39:20.533Z,1009.57
2022-08-20T06:40:20.673Z,1009.62
2022-08-20T06:41:20.549Z,1009.67
2022-08-20T06:42:20.863Z,1009.71
2022-08-20T06:43:20.497Z,1009.73
2022-08-20T06:44:20.534Z,1009.66
2022-08-20T06:45:20.511Z,1009.61
2022-08-20T06:46:20.484Z,1009.64
2022-08-20T06:47:20.458Z,1009.71
2022-08-20T06:48:20.451Z,1009.71
2022-08-20T06:49:20.430Z,1009.70
2022-08-20T06:50:20.434Z,1009.61
2022-08-20T06:51:20.437Z,1009.66
2022-08-20T06:52:20.417Z,1009.69
2022-08-20T06:53:21.393Z,1009.69
2022-08-20T06:54:20.384Z,1009.66
2022-08-20T06:55:21.409Z,1009.64
2022-08-20T06:56:20.412Z,1009.64
2022-08-20T06:57:20.344Z,1009.67
2022-08-20T06:58:35.741Z,1009.63
2022-08-20T06:59:21.336Z,1009.73
2022-08-20T07:00:20.312Z,1009.65
2022-08-20T07:01:20.372Z,1009.73
2022-08-20T07:02:20.300Z,1009.69
2022-08-20T07:04:31.735Z,1009.65
2022-08-20T07:05:31.713Z,1009.70
2022-08-20T07:06:31.726Z,1009.69
2022-08-20T07:07:31.695Z,1009.74
2022-08-20T07:08:31.632Z,1009.72
2022-08-20T07:09:31.591Z,1009.74
2022-08-20T07:10:31.573Z,1009.74
2022-08-20T07:11:31.580Z,1009.76
2022-08-20T07:12:31.585Z,1009.79
2022-08-20T07:13:31.558Z,1009.80
2022-08-20T07:14:31.545Z,1009.83
2022-08-20T07:15:31.524Z,1009.83
2022-08-20T07:16:31.513Z,1009.80
2022-08-20T07:17:31.519Z,1009.82
2022-08-20T07:18:31.483Z,1009.75
2022-08-20T07:19:31.474Z,1009.78
2022-08-20T07:20:31.464Z,1009.82
2022-08-20T07:21:31.497Z,1009.81
2022-08-20T07:22:31.455Z,1009.82
2022-08-20T07:23:31.492Z,1009.82
2022-08-20T07:24:33.305Z,1009.86
2022-08-20T07:25:31.415Z,1009.87
2022-08-20T07:26:31.403Z,1009.84
2022-08-20T07:27:31.386Z,1009.88
2022-08-20T07:28:31.381Z,1009.90
2022-08-20T07:29:31.392Z,1009.86
2022-08-20T07:30:31.388Z,1009.89
2022-08-20T07:31:31.603Z,1009.95
2022-08-20T07:32:31.361Z,1009.91
2022-08-20T07:33:31.344Z,1009.98
2022-08-20T07:34:31.322Z,1009.96
2022-08-20T07:35:31.339Z,1009.94
2022-08-20T07:36:31.352Z,1009.92
2022-08-20T07:38:41.790Z,1010.00
2022-08-20T07:39:41.747Z,1009.98
2022-08-20T07:40:41.680Z,1010.04
2022-08-20T07:41:41.738Z,1010.08
2022-08-20T07:42:41.621Z,1010.02
2022-08-20T07:43:41.579Z,1010.06
2022-08-20T07:44:41.558Z,1010.06
2022-08-20T07:45:41.579Z,1010.03
2022-08-20T07:46:42.581Z,1010.00
2022-08-20T07:47:41.541Z,1010.01
2022-08-20T07:48:41.518Z,1010.01
2022-08-20T07:49:41.506Z,1010.02
2022-08-20T07:50:43.008Z,1009.97
2022-08-20T07:51:41.496Z,1009.98
2022-08-20T07:52:41.482Z,1009.91
2022-08-20T07:53:41.466Z,1009.96
2022-08-20T07:54:41.455Z,1009.97
2022-08-20T07:55:41.445Z,1009.99
2022-08-20T07:56:42.449Z,1009.92
2022-08-20T07:57:41.430Z,1009.93
2022-08-20T07:58:41.498Z,1009.93
2022-08-20T07:59:41.402Z,1009.95
2022-08-20T08:00:41.466Z,1009.97
2022-08-20T08:01:41.387Z,1009.95
2022-08-20T08:02:41.385Z,1009.94
2022-08-20T08:03:50.098Z,1009.97
2022-08-20T08:04:42.368Z,1010.00
2022-08-20T08:05:41.335Z,1009.99
2022-08-20T08:06:41.343Z,1009.96
2022-08-20T08:07:42.309Z,1010.02
2022-08-20T08:08:41.306Z,1010.00
2022-08-20T08:09:41.294Z,1010.03
2022-08-20T08:10:41.295Z,1010.09
2022-08-20T08:11:46.494Z,1010.09
2022-08-20T08:12:42.288Z,1010.09
2022-08-20T08:13:41.256Z,1010.15
2022-08-20T08:14:41.251Z,1010.14
2022-08-20T08:15:41.249Z,1010.22
2022-08-20T08:16:41.223Z,1010.18
2022-08-20T08:17:41.248Z,1010.21
2022-08-20T08:18:41.208Z,1010.20
2022-08-20T08:19:41.182Z,1010.09
2022-08-20T08:20:46.922Z,1010.17
2022-08-20T08:21:42.199Z,1010.11
2022-08-20T08:22:41.210Z,1010.19
2022-08-20T08:23:41.165Z,1010.23
2022-08-20T08:24:41.134Z,1010.24
2022-08-20T08:25:42.126Z,1010.25
2022-08-20T08:26:41.116Z,1010.24
2022-08-20T08:27:41.109Z,1010.26
2022-08-20T08:28:41.112Z,1010.24
2022-08-20T08:29:41.107Z,1010.23
2022-08-20T08:30:41.088Z,1010.28
2022-08-20T08:31:41.108Z,1010.29
2022-08-20T08:32:41.054Z,1010.24
2022-08-20T08:33:41.084Z,1010.24
2022-08-20T08:34:41.032Z,1010.20
2022-08-20T08:35:41.483Z,1010.19
2022-08-20T08:36:41.026Z,1010.31
2022-08-20T08:37:41.030Z,1010.24
2022-08-20T08:38:41.001Z,1010.22
2022-08-20T08:39:41.044Z,1010.21
2022-08-20T08:40:40.983Z,1010.18
2022-08-20T08:41:40.986Z,1010.25
2022-08-20T08:42:43.302Z,1010.17
2022-08-20T08:43:40.972Z,1010.28
2022-08-20T08:44:40.938Z,1010.23
2022-08-20T08:45:40.937Z,1010.25
2022-08-20T08:46:40.919Z,1010.27
2022-08-20T08:47:40.902Z,1010.25
2022-08-20T08:48:40.929Z,1010.29
2022-08-20T08:49:40.880Z,1010.30
2022-08-20T08:50:54.063Z,1010.27
2022-08-20T08:51:41.865Z,1010.26
2022-08-20T08:52:40.860Z,1010.24
2022-08-20T08:53:40.862Z,1010.29
2022-08-20T08:54:40.836Z,1010.26
2022-08-20T08:55:40.818Z,1010.27
2022-08-20T08:56:40.829Z,1010.34
2022-08-20T08:57:40.817Z,1010.39
2022-08-20T08:58:40.784Z,1010.32
2022-08-20T08:59:52.474Z,1010.33
2022-08-20T09:00:52.731Z,1010.34
2022-08-20T09:01:55.573Z,1010.32
2022-08-20T09:02:41.798Z,1010.38
2022-08-20T09:03:40.736Z,1010.40
2022-08-20T09:04:40.748Z,1010.40
2022-08-20T09:05:40.708Z,1010.40
2022-08-20T09:06:40.717Z,1010.43
2022-08-20T09:07:40.699Z,1010.44
2022-08-20T09:08:40.678Z,1010.43
2022-08-20T09:09:40.693Z,1010.51
2022-08-20T09:10:40.658Z,1010.39
2022-08-20T09:11:40.649Z,1010.52
2022-08-20T09:12:44.459Z,1010.55
2022-08-20T09:13:41.629Z,1010.47
2022-08-20T09:14:40.624Z,1010.47
2022-08-20T09:15:40.630Z,1010.54
2022-08-20T09:16:52.788Z,1010.42
2022-08-20T09:17:41.608Z,1010.46
2022-08-20T09:18:40.577Z,1010.45
2022-08-20T09:19:40.582Z,1010.43
2022-08-20T09:20:40.563Z,1010.49
2022-08-20T09:21:40.558Z,1010.50
2022-08-20T09:22:40.541Z,1010.54
2022-08-20T09:23:40.536Z,1010.47
2022-08-20T09:24:40.527Z,1010.48
2022-08-20T09:25:40.505Z,1010.44
2022-08-20T09:26:40.491Z,1010.53
2022-08-20T09:27:41.449Z,1010.52
2022-08-20T09:28:40.476Z,1010.45
2022-08-20T09:29:40.468Z,1010.49
2022-08-20T09:30:40.471Z,1010.49
2022-08-20T09:31:40.461Z,1010.52
2022-08-20T09:32:40.438Z,1010.58
2022-08-20T09:33:40.432Z,1010.54
2022-08-20T09:34:40.438Z,1010.49
2022-08-20T09:35:40.414Z,1010.54
2022-08-20T09:36:40.392Z,1010.54
2022-08-20T09:37:40.395Z,1010.54
2022-08-20T09:38:40.369Z,1010.53
2022-08-20T09:39:40.410Z,1010.57
2022-08-20T09:40:40.357Z,1010.55
2022-08-20T09:41:40.357Z,1010.52
2022-08-20T09:42:41.625Z,1010.58
2022-08-20T09:43:40.311Z,1010.56
2022-08-20T09:44:40.327Z,1010.59
2022-08-20T09:45:40.304Z,1010.51
2022-08-20T09:46:40.296Z,1010.57
2022-08-20T09:47:54.701Z,1010.54
2022-08-20T09:48:41.290Z,1010.55
2022-08-20T09:49:40.264Z,1010.49
2022-08-20T09:50:40.249Z,1010.52
2022-08-20T09:51:40.237Z,1010.50
2022-08-20T09:52:40.833Z,1010.45
2022-08-20T09:53:40.212Z,1010.41
2022-08-20T09:54:40.224Z,1010.49
2022-08-20T09:55:41.200Z,1010.47
2022-08-20T09:56:40.201Z,1010.45
2022-08-20T09:57:40.174Z,1010.46
2022-08-20T09:58:40.167Z,1010.48
2022-08-20T09:59:40.145Z,1010.48
2022-08-20T10:00:40.166Z,1010.49
2022-08-20T10:01:40.199Z,1010.56
2022-08-20T10:02:40.178Z,1010.55
2022-08-20T10:03:41.800Z,1010.53
2022-08-20T10:04:40.127Z,1010.50
2022-08-20T10:05:40.096Z,1010.53
2022-08-20T10:06:40.082Z,1010.53
2022-08-20T10:07:40.107Z,1010.49
2022-08-20T10:08:40.075Z,1010.54
2022-08-20T10:09:40.075Z,1010.59
2022-08-20T10:10:40.051Z,1010.59
2022-08-20T10:11:40.033Z,1010.47
2022-08-20T10:12:40.043Z,1010.59
2022-08-20T10:13:40.014Z,1010.50
2022-08-20T10:14:40.017Z,1010.51
2022-08-20T10:15:39.990Z,1010.59
2022-08-20T10:16:40.004Z,1010.58
2022-08-20T10:17:39.971Z,1010.46
2022-08-20T10:18:39.951Z,1010.53
2022-08-20T10:19:39.953Z,1010.53
2022-08-20T10:20:39.995Z,1010.52
2022-08-20T10:21:39.958Z,1010.58
2022-08-20T10:22:39.926Z,1010.60
2022-08-20T10:23:39.929Z,1010.60
2022-08-20T10:24:39.899Z,1010.61
2022-08-20T10:25:39.897Z,1010.59
2022-08-20T10:26:39.894Z,1010.62
2022-08-20T10:27:39.869Z,1010.60
2022-08-20T10:28:39.849Z,1010.55
2022-08-20T10:29:43.034Z,1010.64
2022-08-20T10:30:40.825Z,1010.61
2022-08-20T10:31:39.864Z,1010.65
2022-08-20T10:32:39.821Z,1010.58
2022-08-20T10:33:39.848Z,1010.58
2022-08-20T10:34:39.840Z,1010.55
2022-08-20T10:35:39.779Z,1010.60
2022-08-20T10:36:39.772Z,1010.53
2022-08-20T10:37:39.772Z,1010.53
2022-08-20T10:38:39.752Z,1010.53
2022-08-20T10:39:39.820Z,1010.52
2022-08-20T10:40:39.750Z,1010.51
2022-08-20T10:41:39.737Z,1010.54
2022-08-20T10:42:42.605Z,1010.51
2022-08-20T10:43:39.705Z,1010.52
2022-08-20T10:44:39.686Z,1010.52
2022-08-20T10:45:40.404Z,1010.57
2022-08-20T10:46:39.684Z,1010.53
2022-08-20T10:47:39.674Z,1010.54
2022-08-20T10:48:48.317Z,1010.59
2022-08-20T10:49:48.507Z,1010.65
2022-08-20T10:53:00.417Z,1010.59
2022-08-20T10:54:00.325Z,1010.61
2022-08-20T10:55:00.225Z,1010.62
2022-08-20T10:56:00.353Z,1010.64
2022-08-20T10:57:00.176Z,1010.59
2022-08-20T10:58:00.180Z,1010.64
2022-08-20T10:59:00.147Z,1010.64
2022-08-20T11:00:00.158Z,1010.64
2022-08-20T11:01:00.107Z,1010.65
2022-08-20T11:02:00.201Z,1010.59
2022-08-20T11:03:00.077Z,1010.66
2022-08-20T11:04:00.103Z,1010.70
2022-08-20T11:05:00.115Z,1010.69
2022-08-20T11:06:00.055Z,1010.70
2022-08-20T11:07:00.053Z,1010.70
2022-08-20T11:08:00.056Z,1010.75
2022-08-20T11:09:00.026Z,1010.78
2022-08-20T11:10:00.008Z,1010.78
2022-08-20T11:10:59.991Z,1010.78
2022-08-20T11:11:59.996Z,1010.79
2022-08-20T11:12:59.981Z,1010.79
2022-08-20T11:13:59.961Z,1010.83
2022-08-20T11:14:59.969Z,1010.78
2022-08-20T11:15:59.947Z,1010.82
2022-08-20T11:16:59.932Z,1010.88
2022-08-20T11:17:59.960Z,1010.92
2022-08-20T11:18:59.915Z,1010.88
2022-08-20T11:19:59.911Z,1010.90
2022-08-20T11:20:59.886Z,1010.84
2022-08-20T11:21:59.888Z,1010.92
2022-08-20T11:22:59.873Z,1010.90
2022-08-20T11:24:02.753Z,1010.94
2022-08-20T11:24:59.881Z,1010.96
2022-08-20T11:25:59.860Z,1010.96
2022-08-20T11:26:59.840Z,1010.96
2022-08-20T11:27:59.816Z,1010.96
2022-08-20T11:28:59.828Z,1010.95
2022-08-20T11:29:59.807Z,1010.93
2022-08-20T11:30:59.811Z,1011.02
2022-08-20T11:31:59.777Z,1011.03
2022-08-20T11:32:59.774Z,1010.96
2022-08-20T11:33:59.755Z,1011.00
2022-08-20T11:34:59.763Z,1010.98
2022-08-20T11:35:59.749Z,1010.94
2022-08-20T11:36:59.768Z,1011.00
2022-08-20T11:37:59.813Z,1011.00
2022-08-20T11:38:59.728Z,1010.97
2022-08-20T11:39:59.763Z,1010.99
2022-08-20T11:40:59.829Z,1011.00
2022-08-20T11:41:59.679Z,1011.00
2022-08-20T11:43:16.592Z,1010.98
2022-08-20T11:44:20.700Z,1010.98
2022-08-20T11:45:00.643Z,1011.00
2022-08-20T11:45:59.640Z,1010.97
2022-08-20T11:46:59.732Z,1010.95
2022-08-20T11:47:59.622Z,1011.00
2022-08-20T11:48:59.616Z,1011.04
2022-08-20T11:49:59.616Z,1010.97
2022-08-20T11:50:59.606Z,1011.05
2022-08-20T11:51:59.612Z,1011.00
2022-08-20T11:53:01.166Z,1011.04
2022-08-20T11:53:59.559Z,1010.99
2022-08-20T11:54:59.541Z,1010.94
2022-08-20T11:55:59.533Z,1010.99
2022-08-20T11:56:59.588Z,1011.01
2022-08-20T11:58:00.037Z,1010.94
2022-08-20T11:58:59.533Z,1011.00
2022-08-20T11:59:59.490Z,1010.93
2022-08-20T12:00:59.533Z,1010.98
2022-08-20T12:02:02.232Z,1010.96
2022-08-20T12:02:59.977Z,1010.92
2022-08-20T12:03:59.488Z,1010.93
2022-08-20T12:04:59.444Z,1010.93
2022-08-20T12:05:59.440Z,1010.93
2022-08-20T12:06:59.446Z,1010.94
2022-08-20T12:07:59.434Z,1010.97
2022-08-20T12:08:59.442Z,1010.93
2022-08-20T12:09:59.410Z,1010.95
2022-08-20T12:10:59.427Z,1010.93